createdAt,value
2023-05-17T00:02:09.889Z,28.05
2023-05-17T00:04:36.903Z,31.42
2023-05-17T00:07:04.080Z,27.42
2023-05-17T00:09:31.057Z,23.17
2023-05-17T00:11:58.067Z,30.75
2023-05-17T00:14:25.139Z,23.92
2023-05-17T00:16:52.838Z,23.90
2023-05-17T00:19:19.999Z,27.35
2023-05-17T00:21:47.088Z,27.67
2023-05-17T00:24:14.096Z,26.05
2023-05-17T00:26:41.040Z,29.83
2023-05-17T00:29:08.040Z,26.83
2023-05-17T00:31:34.989Z,31.35
2023-05-17T00:34:02.100Z,24.95
2023-05-17T00:36:29.158Z,25.08
2023-05-17T00:38:56.114Z,27.98
2023-05-17T00:41:23.121Z,25.90
2023-05-17T00:43:50.258Z,27.35
2023-05-17T00:46:17.268Z,21.23
2023-05-17T00:48:44.534Z,22.80
2023-05-17T00:51:13.395Z,20.73
2023-05-17T00:53:40.575Z,22.92
2023-05-17T00:56:07.880Z,26.45
2023-05-17T00:58:37.030Z,20.67
2023-05-17T01:01:04.181Z,20.02
2023-05-17T01:03:31.214Z,22.60
2023-05-17T01:05:58.342Z,19.55
2023-05-17T01:08:25.447Z,26.50
2023-05-17T01:11:36.933Z,19.25
2023-05-17T01:14:42.510Z,17.48
2023-05-17T01:17:32.617Z,18.60
2023-05-17T01:20:21.572Z,20.15
2023-05-17T01:22:58.968Z,17.70
2023-05-17T01:25:46.610Z,18.40
2023-05-17T01:28:15.105Z,25.10
2023-05-17T01:30:45.195Z,21.42
2023-05-17T01:33:13.186Z,19.67
2023-05-17T01:35:40.448Z,17.23
2023-05-17T01:38:07.405Z,20.38
2023-05-17T01:40:37.375Z,21.70
2023-05-17T01:43:36.952Z,22.67
2023-05-17T01:46:19.009Z,17.63
2023-05-17T01:48:54.586Z,17.00
2023-05-17T01:51:26.941Z,14.32
2023-05-17T01:54:01.956Z,15.65
2023-05-17T01:56:34.715Z,17.48
2023-05-17T01:59:04.770Z,15.15
2023-05-17T02:01:34.115Z,15.97
2023-05-17T02:04:01.597Z,14.20
2023-05-17T02:06:28.711Z,18.80
2023-05-17T02:08:55.726Z,17.20
2023-05-17T02:11:22.688Z,17.13
2023-05-17T02:13:49.699Z,19.08
2023-05-17T02:16:16.737Z,19.10
2023-05-17T02:18:43.885Z,12.73
2023-05-17T02:21:12.108Z,20.50
2023-05-17T02:23:39.101Z,14.73
2023-05-17T02:26:06.247Z,15.27
2023-05-17T02:28:33.491Z,12.07
2023-05-17T02:31:00.520Z,14.18
2023-05-17T02:33:27.871Z,15.45
2023-05-17T02:35:54.862Z,14.75
2023-05-17T02:38:22.046Z,18.17
2023-05-17T02:40:49.055Z,13.55
2023-05-17T02:43:16.027Z,20.83
2023-05-17T02:45:44.779Z,15.50
2023-05-17T02:48:11.870Z,11.50
2023-05-17T02:50:38.856Z,13.13
2023-05-17T02:53:05.829Z,11.60
2023-05-17T02:55:32.793Z,18.08
2023-05-17T02:57:59.743Z,14.07
2023-05-17T03:00:26.890Z,13.65
2023-05-17T03:02:53.927Z,12.55
2023-05-17T03:05:21.105Z,11.95
2023-05-17T03:07:48.059Z,16.48
2023-05-17T03:10:15.139Z,17.95
2023-05-17T03:12:42.164Z,18.77
2023-05-17T03:15:09.398Z,14.52
2023-05-17T03:17:36.995Z,15.38
2023-05-17T03:20:04.473Z,19.65
2023-05-17T03:22:31.446Z,16.00
2023-05-17T03:24:58.477Z,15.57
2023-05-17T03:27:25.474Z,15.70
2023-05-17T03:29:52.459Z,16.05
2023-05-17T03:32:19.404Z,14.10
2023-05-17T03:34:46.371Z,12.80
2023-05-17T03:37:13.338Z,12.98
2023-05-17T03:39:40.281Z,13.10
2023-05-17T03:42:07.285Z,14.20
2023-05-17T03:44:34.250Z,12.63
2023-05-17T03:47:01.236Z,10.23
2023-05-17T03:49:28.294Z,14.15
2023-05-17T03:51:55.288Z,16.15
2023-05-17T03:54:22.282Z,10.93
2023-05-17T03:56:50.401Z,14.88
2023-05-17T03:59:17.656Z,8.98
2023-05-17T04:01:45.755Z,11.00
2023-05-17T04:04:12.813Z,10.70
2023-05-17T04:06:41.250Z,12.73
2023-05-17T04:09:10.990Z,18.60
2023-05-17T04:11:38.363Z,11.07
2023-05-17T04:14:05.966Z,8.32
2023-05-17T04:16:33.148Z,17.98
2023-05-17T04:19:01.093Z,11.32
2023-05-17T04:21:28.202Z,9.23
2023-05-17T04:23:55.304Z,15.25
2023-05-17T04:26:22.552Z,12.73
2023-05-17T04:28:49.536Z,11.68
2023-05-17T04:31:18.469Z,9.00
2023-05-17T04:33:45.552Z,10.32
2023-05-17T04:36:12.576Z,8.40
2023-05-17T04:38:40.102Z,8.35
2023-05-17T04:41:09.521Z,14.18
2023-05-17T04:43:36.973Z,13.35
2023-05-17T04:46:05.658Z,10.02
2023-05-17T04:48:33.451Z,13.15
2023-05-17T04:51:07.543Z,13.77
2023-05-17T04:53:34.682Z,7.18
2023-05-17T04:56:02.239Z,11.68
2023-05-17T04:58:29.226Z,15.65
2023-05-17T05:00:56.417Z,12.27
2023-05-17T05:03:23.534Z,12.55
2023-05-17T05:05:51.062Z,9.70
2023-05-17T05:08:18.035Z,7.75
2023-05-17T05:10:45.132Z,10.38
2023-05-17T05:13:12.295Z,13.95
2023-05-17T05:15:39.245Z,10.00
2023-05-17T05:18:06.418Z,12.25
2023-05-17T05:20:33.458Z,10.25
2023-05-17T05:23:01.169Z,9.85
2023-05-17T05:25:28.634Z,8.98
2023-05-17T05:27:55.856Z,8.80
2023-05-17T05:30:22.994Z,9.38
2023-05-17T05:32:51.051Z,5.22
2023-05-17T05:35:18.597Z,8.20
2023-05-17T05:37:46.179Z,8.77
2023-05-17T05:40:13.686Z,5.10
2023-05-17T05:42:40.760Z,7.00
2023-05-17T05:45:08.499Z,9.73
2023-05-17T05:47:35.683Z,8.77
2023-05-17T05:50:02.772Z,6.03
2023-05-17T05:52:29.806Z,7.35
2023-05-17T05:54:56.725Z,8.20
2023-05-17T05:57:23.969Z,15.25
2023-05-17T05:59:50.997Z,8.25
2023-05-17T06:02:17.947Z,9.63
2023-05-17T06:04:45.929Z,6.07
2023-05-17T06:07:16.588Z,10.93
2023-05-17T06:09:43.876Z,10.23
2023-05-17T06:12:10.854Z,7.60
2023-05-17T06:14:38.675Z,5.85
2023-05-17T06:17:06.590Z,8.68
2023-05-17T06:19:33.703Z,4.70
2023-05-17T06:22:00.789Z,8.05
2023-05-17T06:24:27.824Z,7.50
2023-05-17T06:26:54.906Z,8.50
2023-05-17T06:29:22.193Z,7.88
2023-05-17T06:31:49.179Z,7.35
2023-05-17T06:34:16.309Z,5.68
2023-05-17T06:36:43.482Z,4.75
2023-05-17T06:39:11.190Z,5.05
2023-05-17T06:41:38.310Z,5.38
2023-05-17T06:44:05.931Z,6.05
2023-05-17T06:46:32.947Z,8.95
2023-05-17T06:49:00.083Z,5.70
2023-05-17T06:51:27.178Z,4.50
2023-05-17T06:53:54.158Z,3.13
2023-05-17T06:56:21.159Z,3.38
2023-05-17T06:58:48.139Z,7.00
2023-05-17T07:01:15.851Z,2.58
2023-05-17T07:03:43.490Z,5.20
2023-05-17T07:06:10.865Z,5.88
2023-05-17T07:08:37.843Z,4.43
2023-05-17T07:11:05.358Z,2.45
2023-05-17T07:13:33.132Z,4.32
2023-05-17T07:16:03.086Z,2.00
2023-05-17T07:18:30.334Z,4.70
2023-05-17T07:20:57.463Z,4.63
2023-05-17T07:23:24.463Z,4.38
2023-05-17T07:25:51.713Z,3.08
2023-05-17T07:28:18.725Z,4.20
2023-05-17T07:30:45.781Z,3.67
2023-05-17T07:33:12.761Z,6.88
2023-05-17T07:35:39.796Z,4.35
2023-05-17T07:38:06.814Z,5.32
2023-05-17T07:40:33.775Z,6.50
2023-05-17T07:43:01.213Z,3.75
2023-05-17T07:45:28.719Z,6.07
2023-05-17T07:47:56.132Z,7.82
2023-05-17T07:50:23.577Z,3.55
2023-05-17T07:55:28.071Z,5.22
2023-05-17T07:57:55.343Z,5.47
2023-05-17T08:00:22.900Z,7.88
2023-05-17T08:02:49.903Z,5.20
2023-05-17T08:05:16.995Z,2.90
2023-05-17T08:07:43.977Z,3.55
2023-05-17T08:10:11.425Z,6.10
2023-05-17T08:12:38.454Z,4.75
2023-05-17T08:15:05.927Z,5.80
2023-05-17T08:17:32.907Z,5.45
2023-05-17T08:19:59.926Z,5.90
2023-05-17T08:22:27.555Z,5.38
2023-05-17T08:24:54.548Z,3.45
2023-05-17T08:27:21.510Z,3.83
2023-05-17T08:29:49.556Z,4.07
2023-05-17T08:32:16.513Z,3.15
2023-05-17T08:34:43.520Z,3.67
2023-05-17T08:37:10.605Z,4.63
2023-05-17T08:39:37.733Z,7.20
2023-05-17T08:42:08.540Z,4.82
2023-05-17T08:44:36.579Z,3.10
2023-05-17T08:47:04.240Z,5.07
2023-05-17T08:49:38.119Z,5.72
2023-05-17T08:52:10.220Z,4.85
2023-05-17T08:54:37.768Z,5.72
2023-05-17T08:57:06.864Z,3.75
2023-05-17T08:59:35.321Z,3.10
2023-05-17T09:02:02.704Z,6.70
2023-05-17T09:04:31.386Z,3.20
2023-05-17T09:06:59.039Z,4.50
2023-05-17T09:09:27.494Z,13.15
2023-05-17T09:11:55.228Z,5.47
2023-05-17T09:14:24.971Z,5.30
2023-05-17T09:17:00.510Z,2.72
2023-05-17T09:19:28.238Z,5.45
2023-05-17T09:21:56.176Z,3.20
2023-05-17T09:24:30.346Z,4.47
2023-05-17T09:27:03.902Z,3.38
2023-05-17T09:29:32.671Z,3.47
2023-05-17T09:32:20.690Z,4.80
2023-05-17T09:34:48.743Z,5.75
2023-05-17T09:37:17.916Z,7.00
2023-05-17T09:39:47.973Z,8.57
2023-05-17T09:42:17.068Z,5.53
2023-05-17T09:44:57.782Z,6.63
2023-05-17T09:47:29.918Z,10.00
2023-05-17T09:49:58.638Z,12.63
2023-05-17T09:52:25.867Z,4.15
2023-05-17T09:54:57.088Z,3.65
2023-05-17T09:57:27.104Z,3.30
2023-05-17T09:59:58.468Z,6.40
2023-05-17T10:02:32.927Z,3.47
2023-05-17T10:05:05.461Z,2.95
2023-05-17T10:07:33.517Z,10.77
2023-05-17T10:10:00.935Z,4.03
2023-05-17T10:12:31.857Z,3.30
2023-05-17T10:17:30.400Z,3.28
2023-05-17T10:19:58.628Z,5.97
2023-05-17T10:22:27.261Z,4.07
2023-05-17T10:24:56.228Z,4.75
2023-05-17T10:27:24.194Z,4.03
2023-05-17T10:29:53.685Z,1.73
2023-05-17T10:32:23.718Z,3.42
2023-05-17T10:35:01.429Z,4.70
2023-05-17T10:37:34.509Z,9.05
2023-05-17T10:40:01.964Z,7.93
2023-05-17T10:42:31.300Z,4.95
2023-05-17T10:45:00.644Z,6.22
2023-05-17T10:47:34.599Z,6.28
2023-05-17T10:50:03.552Z,3.92
2023-05-17T10:52:30.981Z,4.95
2023-05-17T10:55:00.427Z,2.83
2023-05-17T10:57:50.773Z,11.82
2023-05-17T11:02:50.787Z,4.45
2023-05-17T11:05:25.455Z,4.28
2023-05-17T11:07:52.700Z,4.40
2023-05-17T11:10:19.730Z,4.65
2023-05-17T11:12:54.081Z,7.28
2023-05-17T11:15:28.209Z,10.38
2023-05-17T11:17:57.970Z,7.03
2023-05-17T11:20:28.306Z,6.28
2023-05-17T11:23:16.591Z,6.20
2023-05-17T11:25:44.428Z,5.30
2023-05-17T11:28:29.288Z,7.80
2023-05-17T11:31:01.433Z,7.05
2023-05-17T11:33:45.629Z,4.82
2023-05-17T11:36:20.839Z,6.25
2023-05-17T11:39:10.976Z,6.32
2023-05-17T11:41:42.791Z,6.20
2023-05-17T11:44:10.509Z,5.72
2023-05-17T11:46:39.294Z,5.90
2023-05-17T11:49:08.163Z,8.45
2023-05-17T11:51:35.840Z,7.35
2023-05-17T11:54:04.353Z,2.90
2023-05-17T11:59:10.958Z,7.10
2023-05-17T12:01:46.569Z,5.25
2023-05-17T12:04:14.149Z,4.88
2023-05-17T12:06:41.663Z,5.28
2023-05-17T12:09:11.343Z,6.65
2023-05-17T12:11:39.641Z,6.82
2023-05-17T12:14:07.436Z,7.63
2023-05-17T12:16:40.066Z,10.27
2023-05-17T12:19:19.194Z,7.00
2023-05-17T12:21:46.862Z,4.25
2023-05-17T12:24:14.471Z,6.38
2023-05-17T12:26:45.912Z,4.78
2023-05-17T12:29:18.079Z,4.18
2023-05-17T12:31:49.315Z,7.97
2023-05-17T12:34:18.597Z,3.80
2023-05-17T12:36:46.707Z,7.57
2023-05-17T12:39:14.746Z,5.30
2023-05-17T12:41:43.181Z,6.38
2023-05-17T12:44:15.620Z,7.55
2023-05-17T12:46:43.721Z,7.20
2023-05-17T12:49:12.418Z,8.88
2023-05-17T12:51:46.676Z,5.80
2023-05-17T12:54:25.471Z,5.90
2023-05-17T12:56:52.678Z,7.10
2023-05-17T12:59:29.078Z,6.00
2023-05-17T13:01:57.995Z,5.97
2023-05-17T13:04:33.246Z,6.22
2023-05-17T13:07:05.263Z,5.20
2023-05-17T13:09:33.605Z,5.60
2023-05-17T13:12:05.099Z,5.53
2023-05-17T13:14:40.698Z,12.65
2023-05-17T13:19:39.412Z,7.82
2023-05-17T13:22:08.037Z,8.77
2023-05-17T13:24:36.929Z,7.07
2023-05-17T13:27:05.017Z,4.85
2023-05-17T13:29:39.610Z,14.65
2023-05-17T13:32:09.156Z,8.48
2023-05-17T13:34:36.987Z,3.88
2023-05-17T13:37:05.930Z,8.32
2023-05-17T13:39:34.541Z,7.00
2023-05-17T13:42:01.555Z,4.75
2023-05-17T13:44:28.536Z,6.20
2023-05-17T13:46:55.763Z,3.85
2023-05-17T13:49:22.718Z,5.18
2023-05-17T13:51:49.733Z,6.20
2023-05-17T13:54:16.805Z,4.93
2023-05-17T13:56:43.784Z,13.27
2023-05-17T13:59:11.253Z,6.43
2023-05-17T14:01:38.285Z,6.18
2023-05-17T14:04:05.556Z,6.25
2023-05-17T14:06:32.663Z,7.32
2023-05-17T14:09:00.894Z,5.82
2023-05-17T14:11:27.954Z,9.35
2023-05-17T14:13:55.125Z,6.55
2023-05-17T14:16:22.974Z,9.70
2023-05-17T14:18:50.214Z,5.90
2023-05-17T14:21:17.768Z,4.88
2023-05-17T14:23:44.787Z,9.13
2023-05-17T14:26:11.965Z,4.97
2023-05-17T14:28:39.272Z,12.43
2023-05-17T14:31:07.745Z,3.45
2023-05-17T14:33:35.201Z,8.75
2023-05-17T14:36:03.840Z,7.30
2023-05-17T14:38:31.187Z,6.30
2023-05-17T14:41:00.916Z,5.75
2023-05-17T14:43:28.637Z,6.28
2023-05-17T14:45:55.853Z,7.38
2023-05-17T14:48:23.127Z,5.10
2023-05-17T14:50:50.405Z,4.50
2023-05-17T14:53:17.538Z,6.75
2023-05-17T14:55:44.968Z,8.13
2023-05-17T14:58:13.821Z,6.38
2023-05-17T15:00:42.039Z,6.55
2023-05-17T15:03:09.559Z,9.18
2023-05-17T15:05:38.892Z,9.18
2023-05-17T15:08:06.334Z,3.53
2023-05-17T15:10:33.324Z,5.55
2023-05-17T15:13:00.380Z,9.27
2023-05-17T15:15:28.453Z,5.63
2023-05-17T15:17:55.655Z,5.43
2023-05-17T15:20:22.942Z,7.10
2023-05-17T15:22:49.913Z,7.45
2023-05-17T15:25:17.031Z,10.05
2023-05-17T15:27:44.058Z,6.25
2023-05-17T15:30:13.447Z,7.07
2023-05-17T15:32:41.036Z,7.47
2023-05-17T15:35:08.375Z,8.07
2023-05-17T15:37:35.333Z,8.45
2023-05-17T15:40:10.005Z,3.72
2023-05-17T15:42:37.604Z,8.30
2023-05-17T15:45:05.285Z,3.53
2023-05-17T15:47:42.355Z,6.82
2023-05-17T15:50:11.119Z,4.57
2023-05-17T15:52:38.930Z,7.82
2023-05-17T15:55:06.706Z,5.57
2023-05-17T15:57:33.734Z,6.22
2023-05-17T16:00:00.865Z,8.90
2023-05-17T16:02:27.966Z,3.28
2023-05-17T16:04:55.318Z,3.55
2023-05-17T16:07:22.859Z,8.18
2023-05-17T16:09:49.831Z,6.25
2023-05-17T16:12:17.216Z,10.32
2023-05-17T16:14:45.060Z,8.63
2023-05-17T16:17:12.366Z,6.68
2023-05-17T16:19:39.439Z,8.75
2023-05-17T16:22:06.571Z,5.95
2023-05-17T16:24:33.942Z,7.55
2023-05-17T16:27:00.938Z,6.85
2023-05-17T16:29:27.953Z,8.38
2023-05-17T16:31:54.928Z,9.77
2023-05-17T16:34:21.948Z,12.63
2023-05-17T16:36:50.636Z,7.75
2023-05-17T16:39:17.650Z,5.00
2023-05-17T16:41:44.653Z,7.25
2023-05-17T16:44:11.625Z,5.75
2023-05-17T16:46:38.690Z,7.22
2023-05-17T16:49:07.308Z,4.57
2023-05-17T16:51:34.320Z,8.52
2023-05-17T16:54:01.369Z,4.22
2023-05-17T16:56:28.364Z,5.53
2023-05-17T16:58:55.408Z,12.32
2023-05-17T17:01:22.667Z,6.63
2023-05-17T17:03:49.653Z,4.95
2023-05-17T17:06:16.688Z,10.18
2023-05-17T17:08:43.739Z,6.32
2023-05-17T17:11:10.795Z,9.63
2023-05-17T17:13:38.117Z,8.05
2023-05-17T17:16:06.131Z,11.50
2023-05-17T17:18:33.210Z,8.48
2023-05-17T17:21:00.231Z,7.25
2023-05-17T17:23:27.507Z,9.63
2023-05-17T17:25:54.513Z,4.85
2023-05-17T17:28:21.500Z,5.15
2023-05-17T17:30:48.559Z,7.47
2023-05-17T17:33:15.701Z,5.95
2023-05-17T17:35:42.928Z,7.60
2023-05-17T17:38:13.268Z,9.70
2023-05-17T17:40:40.221Z,5.85
2023-05-17T17:43:07.452Z,8.50
2023-05-17T17:45:34.685Z,12.18
2023-05-17T17:48:02.035Z,10.52
2023-05-17T17:50:29.504Z,5.75
2023-05-17T17:52:56.715Z,10.98
2023-05-17T17:55:23.961Z,11.07
2023-05-17T17:57:51.909Z,9.40
2023-05-17T18:00:19.462Z,3.83
2023-05-17T18:02:46.547Z,4.72
2023-05-17T18:05:13.716Z,9.73
2023-05-17T18:07:41.009Z,6.97
2023-05-17T18:10:08.487Z,7.57
2023-05-17T18:12:35.567Z,9.82
2023-05-17T18:15:02.663Z,4.53
2023-05-17T18:17:29.761Z,5.85
2023-05-17T18:19:56.733Z,9.05
2023-05-17T18:22:23.798Z,8.88
2023-05-17T18:24:52.779Z,4.38
2023-05-17T18:27:20.718Z,6.28
2023-05-17T18:29:47.700Z,10.75
2023-05-17T18:32:14.886Z,8.02
2023-05-17T18:34:41.954Z,5.60
2023-05-17T18:37:09.024Z,9.30
2023-05-17T18:39:36.301Z,12.60
2023-05-17T18:42:04.240Z,7.30
2023-05-17T18:44:31.285Z,6.30
2023-05-17T18:46:58.467Z,9.70
2023-05-17T18:49:26.663Z,8.95
2023-05-17T18:51:53.773Z,9.13
2023-05-17T18:54:20.991Z,6.40
2023-05-17T18:56:47.993Z,6.72
2023-05-17T18:59:15.390Z,9.02
2023-05-17T19:01:43.929Z,7.45
2023-05-17T19:04:11.012Z,7.70
2023-05-17T19:06:41.470Z,7.75
2023-05-17T19:09:08.699Z,7.03
2023-05-17T19:11:35.778Z,5.47
2023-05-17T19:14:03.268Z,6.68
2023-05-17T19:16:30.479Z,7.97
2023-05-17T19:18:57.496Z,6.93
2023-05-17T19:21:24.476Z,11.25
2023-05-17T19:23:51.511Z,5.38
2023-05-17T19:26:18.563Z,7.88
2023-05-17T19:28:45.542Z,9.02
2023-05-17T19:31:12.724Z,7.90
2023-05-17T19:33:39.771Z,5.05
2023-05-17T19:36:06.869Z,5.90
2023-05-17T19:38:34.016Z,9.75
2023-05-17T19:41:01.677Z,7.38
2023-05-17T19:43:28.842Z,6.55
2023-05-17T19:45:55.906Z,6.10
2023-05-17T19:48:24.414Z,7.93
2023-05-17T19:50:51.681Z,4.57
2023-05-17T19:53:19.137Z,5.78
2023-05-17T19:55:46.256Z,9.82
2023-05-17T19:58:13.250Z,6.80
2023-05-17T20:00:40.294Z,9.98
2023-05-17T20:03:07.456Z,6.63
2023-05-17T20:05:34.547Z,6.13
2023-05-17T20:08:02.817Z,5.05
2023-05-17T20:10:33.114Z,6.53
2023-05-17T20:13:00.312Z,4.63
2023-05-17T20:15:27.485Z,6.25
2023-05-17T20:17:54.557Z,3.05
2023-05-17T20:20:21.961Z,8.77
2023-05-17T20:22:49.231Z,8.82
2023-05-17T20:25:16.421Z,3.58
2023-05-17T20:27:43.696Z,12.15
2023-05-17T20:30:11.326Z,8.02
2023-05-17T20:32:38.320Z,7.38
2023-05-17T20:35:05.815Z,6.13
2023-05-17T20:37:33.026Z,5.70
2023-05-17T20:40:00.427Z,6.97
2023-05-17T20:42:28.375Z,5.68
2023-05-17T20:44:55.686Z,7.22
2023-05-17T20:47:22.838Z,8.45
2023-05-17T20:49:50.477Z,3.72
2023-05-17T20:52:31.416Z,7.43
2023-05-17T20:55:06.229Z,8.60
2023-05-17T20:57:33.259Z,5.10
2023-05-17T21:00:00.244Z,6.05
2023-05-17T21:02:27.352Z,4.43
2023-05-17T21:04:54.814Z,9.27
2023-05-17T21:07:23.169Z,6.63
2023-05-17T21:09:50.157Z,5.78
2023-05-17T21:12:17.458Z,7.53
2023-05-17T21:14:44.433Z,7.63
2023-05-17T21:17:11.432Z,8.27
2023-05-17T21:19:38.496Z,10.10
2023-05-17T21:22:06.285Z,5.97
2023-05-17T21:24:33.396Z,6.65
2023-05-17T21:27:01.355Z,10.68
2023-05-17T21:29:28.430Z,11.75
2023-05-17T21:31:55.433Z,4.53
2023-05-17T21:34:22.673Z,10.45
2023-05-17T21:36:49.704Z,6.25
2023-05-17T21:39:17.221Z,5.70
2023-05-17T21:41:44.387Z,6.80
2023-05-17T21:44:11.431Z,9.80
2023-05-17T21:46:38.611Z,11.55
2023-05-17T21:49:05.790Z,8.15
2023-05-17T21:51:32.895Z,10.45
2023-05-17T21:53:59.888Z,5.63
2023-05-17T21:56:27.176Z,7.93
2023-05-17T21:58:54.934Z,8.20
2023-05-17T22:01:24.351Z,9.68
2023-05-17T22:03:55.259Z,5.38
2023-05-17T22:08:49.383Z,7.05
2023-05-17T22:11:18.268Z,6.97
2023-05-17T22:13:45.353Z,4.80
2023-05-17T22:16:12.400Z,13.48
2023-05-17T22:18:39.745Z,10.30
2023-05-17T22:21:06.836Z,7.10
2023-05-17T22:23:33.762Z,12.82
2023-05-17T22:26:00.834Z,14.02
2023-05-17T22:28:28.155Z,8.27
2023-05-17T22:30:55.258Z,7.30
2023-05-17T22:33:22.456Z,5.45
2023-05-17T22:35:53.650Z,4.93
2023-05-17T22:38:21.255Z,7.43
2023-05-17T22:40:48.245Z,11.25
2023-05-17T22:43:15.385Z,5.32
2023-05-17T22:45:42.665Z,7.18
2023-05-17T22:48:09.864Z,6.10
2023-05-17T22:50:36.981Z,11.93
2023-05-17T22:53:06.079Z,6.45
2023-05-17T22:55:33.210Z,5.10
2023-05-17T22:58:00.269Z,6.82
2023-05-17T23:00:27.321Z,8.95
2023-05-17T23:02:54.404Z,6.03
2023-05-17T23:05:22.354Z,7.65
2023-05-17T23:07:49.415Z,3.65
2023-05-17T23:10:16.412Z,4.32
2023-05-17T23:12:43.400Z,8.80
2023-05-17T23:15:10.893Z,3.90
2023-05-17T23:17:39.075Z,6.60
2023-05-17T23:20:12.793Z,12.75
2023-05-17T23:22:40.322Z,6.30
2023-05-17T23:25:07.645Z,7.47
2023-05-17T23:27:35.587Z,6.47
2023-05-17T23:30:04.747Z,9.13
2023-05-17T23:32:35.100Z,3.47
2023-05-17T23:35:05.112Z,12.00
2023-05-17T23:37:35.578Z,7.10
2023-05-17T23:40:07.285Z,7.20
2023-05-17T23:42:34.347Z,5.32
2023-05-17T23:45:02.357Z,6.82
2023-05-17T23:47:29.556Z,7.82
2023-05-17T23:49:57.004Z,11.10
2023-05-17T23:52:24.556Z,6.03
2023-05-17T23:54:51.733Z,4.40
2023-05-17T23:57:18.760Z,4.18
2023-05-17T23:59:45.774Z,3.30
